Terminal Aerodrome Forecast
Issued by NWS Austin/San Antonio, TX

Current Version | Previous Version | Text Only | Print | Product List | Glossary Off
Versions: 1 2 3 4 5 6 7 8 9 10 11 12 13 14 15 16 17 18 19 20 21

000
FTUS44 KEWX 171100
TAFAUS
TAF
KAUS 171140Z 1712/1818 11007KT 5SM BR BKN015
     FM171400 15007KT 5SM -DZ BR OVC009
     FM171700 14007KT P6SM BKN017
     FM180300 05007KT 4SM -DZ BR OVC009
     FM180900 01004KT 2SM -DZ BR OVC004
     FM181500 01007KT 5SM BR OVC015=

USA.gov is the U.S. government's official web portal to all federal, state and local government web resources and services.